ACT        NSW        VIC        QLD        SA        WA        TAS        NT        INFO        CALC            by VK5ZD

Past Date/Time: (dd/mm/yyyy hh:mm or blank for current data)    

  Atmospheric Gas Attenuation - ITU Rec 676-11   --------------- dB/100km ---------------
WA Stations Date Time Temp RH % AH g/m3 Dew Point Wind Direction Speed kph Gust kph Barometer mB Rainfall Since 9am 24GHz 47GHz 76GHz 122GHz 134GHz 241GHz
Albany Airport 11/05 04:00 9.9 87 8.13 7.8 7 9 1023.2 0 18.8 26.7 40.3 105.6 97.8 335.8
Badgingarra 11/05 04:00 12.2 49 5.29 1.8 15 20 1013.1 0 12.6 21.2 27.9 72.6 58.5 198.3
Barimunya 11/05 04:00 17 34 4.92 1 24 35 1018.6 0 11.7 19.8 25.3 65.5 51.3 173.5
Barrow Island 11/05 04:00 22.6 72 14.46 17.3 26 28 1016.5 0 31.5 32.9 58.9 155.5 164.1 569.3
Bedout Island 11/05 02:37 24.4 51 11.35 13.6 33 37 1015 0 24.8 27.2 45.0 118.5 119.2 412.5
Bickley 11/05 04:00 10.4 61 5.88 3.2 15 22 1013.1 0 13.9 22.5 30.7 80.1 67.1 228.2
Boolgeeda 11/05 04:00 12.7 28 3.12 -5.3 2 6 1017.6 0 8.0 18.3 20.5 52.7 33.9 111.8
Bridgetown 11/05 04:00 4 97 6.17 3.6 0 0 1022.4 0 14.8 25.0 34.8 91.0 77.4 263.4
Broome 11/05 04:00 19.2 59 9.73 11 9 11 1014.3 0 21.7 26.2 41.5 109.2 106.1 366.1
Bunbury 11/05 04:00 6.8 100 7.65 6.8 4 6 1021.8 0 17.9 26.7 39.8 104.2 94.9 325.2
Busselton Airport 11/05 04:00 5.9 87 6.28 3.9 9 11 1021.4 0 15.0 24.6 34.4 89.9 76.9 262.1
Cape Leeuwin 11/05 04:00 15.1 58 7.48 6.9 32 41 1020.4 0 17.1 24.0 35.1 91.9 83.0 284.8
Cape Naturaliste 11/05 04:00 18.4 70 11.01 12.8 32 39 1020.7 0 24.5 28.7 47.4 124.7 124.7 431.0
Carnarvon 11/05 04:00 12.1 31 3.32 -4.5 13 15 1018.7 0 8.5 18.7 21.3 54.9 36.4 120.4
Christmas Creek 11/05 04:00 12.1 33 3.54 -3.7 4 6 1019.4 0 8.9 19.0 22.1 56.9 38.8 129.0
Christmas Island 11/05 04:00 25.8 90 21.67 24 13 24 1009.9 0 46.6 44.7 89.1 235.8 264.0 917.0
Cocos Island 11/05 04:00 27.6 91 24.21 26 24 32 1009.9 10.6 51.8 48.8 99.7 264.1 299.1 1039.2
Collie East 11/05 04:00 2.4 94 5.37 1.5 0 0 1013.1 0 13.1 23.8 31.8 83.0 67.3 228.1
Coondewanna 11/05 04:00 7.4 40 3.18 -5.3 2 6 1018.8 0 8.3 19.5 22.1 56.9 36.9 121.7
Cunderdin Airport 11/05 04:00 9.1 69 6.12 3.7 13 15 1024.8 0 14.5 23.7 32.6 85.0 72.0 245.1
Curtin 11/05 04:00 20.4 49 8.67 9.3 15 20 1012.9 0 19.4 24.2 36.9 96.8 91.3 314.4
Dalwallinu 11/05 04:00 8.9 59 5.17 1.3 9 13 1023.9 0 12.5 22.2 29.0 75.4 60.1 203.3
Dwellingup 11/05 04:00 6.5 87 6.53 4.5 15 19 1023.1 0 15.5 25.0 35.3 92.1 79.8 272.3
Eliwana Airport 11/05 04:00 12.5 26 2.86 -6.5 2 4 1013.1 0 7.5 17.8 19.6 50.3 31.1 101.8
Esperance 11/05 04:00 11.8 92 9.68 10.5 15 20 1028.3 0 22.0 28.9 46.1 121.0 117.4 404.3
Esperance Airport 11/05 04:00 11.5 92 9.5 10.2 19 24 1028.3 0 21.6 28.7 45.5 119.4 115.2 396.9
Eucla 11/05 04:00 13.8 97 11.56 13.3 7 9 1028.3 1.2 25.9 31.6 53.1 139.8 141.3 488.1
Fitzroy Crossing 11/05 04:00 16.4 68 9.49 10.5 1014.3 0 21.4 26.6 42.1 110.5 106.8 368.2
Forrest 11/05 04:00 11.2 91 9.23 9.8 7 9 1028.7 0 21.1 28.3 44.5 116.8 111.9 385.2
Fortescue Dave Forrest 11/05 04:00 12.8 35 3.92 -2.3 9 13 1018.8 0 9.7 19.4 23.1 59.8 42.6 142.6
Garden Island 11/05 04:00 16.2 60 8.27 8.4 15 20 1022.4 0 18.8 25.0 37.7 98.8 91.9 316.0
Geraldton Airport 11/05 04:00 13.3 39 4.51 -0.3 17 20 1021.4 0 10.9 20.1 25.1 65.0 49.1 165.4
Gerangamete (Cfa) 11/05 05:50 6.6 100 7.55 6.6 2 4 1013.1 0 17.7 26.3 39.0 102.4 93.0 318.8
Giles* 11/05 05:30 12.6 55 6.09 3.8 7 9 1022.7 0 14.3 22.6 31.0 80.8 68.4 232.9
Gingin Airport 11/05 04:00 13.8 48 5.72 3 19 22 1022.7 0 13.5 21.8 29.2 76.0 62.9 213.9
Golden Grove 11/05 04:00 10 55 5.17 1.4 9 11 1023.2 0 12.4 21.9 28.6 74.3 59.2 200.4
Gooseberry Hill 11/05 04:00 14 48 5.79 3.2 32 44 1013.1 0 13.6 21.5 29.0 75.7 63.0 214.5
Gudai-Darri Mine 11/05 04:00 17.3 32 4.71 0.5 24 32 1013.1 0 11.2 19.3 24.3 63.0 48.5 164.0
Halls Creek 11/05 05:30 18.6 54 8.59 9.1 9 9 1015.7 0 19.3 24.6 37.5 98.5 92.6 318.8
Hopetoun North 11/05 04:00 11.2 86 8.72 8.9 13 15 1025.7 0.2 20.0 27.4 42.2 110.7 104.5 359.3
Iron Bridge Mine 11/05 04:00 15 31 3.98 -2 13 15 1016.9 0 9.8 18.9 22.7 58.6 42.1 140.9
Jacup 11/05 04:00 9.1 84 7.46 6.5 20 30 1025.3 0 17.4 25.8 38.0 99.4 89.8 307.5
Jandakot 11/05 04:00 11.1 59 5.94 3.4 15 17 1022.5 0 14.0 22.8 31.0 80.8 67.8 230.7
Kalgoorlie-Boulder 11/05 04:00 11.6 77 8 7.7 13 19 1027.1 0 18.4 26.1 39.1 102.3 94.2 323.5
Kalumburu 11/05 05:30 21.5 74 13.95 16.7 6 9 1012.4 0 30.5 32.3 57.3 151.3 158.8 550.4
Karijini North 11/05 04:00 19.6 26 4.39 -0.4 24 39 1017.9 0 10.5 18.6 22.8 58.9 44.1 148.4
Karratha 11/05 04:00 17.1 32 4.66 0.3 11 15 1016.5 0 11.1 19.4 24.3 63.0 48.3 163.0
Katanning Rs 11/05 04:00 10.4 69 6.65 5 17 24 1024.3 0 15.6 24.1 34.1 89.0 77.6 264.9
Koolan Island / Koolan Central 11/05 04:00 24.7 54 12.22 14.8 15 17 1013.1 0 26.7 28.4 48.1 126.8 129.6 448.9
Kununurra Airport 11/05 05:30 23.1 59 12.2 14.7 9 13 1014 0 26.7 28.9 49.1 129.3 132.1 457.5
Lake Grace 11/05 04:00 11.3 77 7.86 7.4 17 26 1025.2 0 18.1 25.9 38.6 101.0 92.6 317.6
Lancelin (Defence) 11/05 04:00 13.9 48 5.75 3.1 17 24 1021.6 0 13.5 21.8 29.3 76.1 63.1 214.7
Laverton 11/05 04:00 11 86 8.61 8.8 17 20 1026.1 0 19.7 27.2 41.9 109.8 103.3 355.0
Learmonth 11/05 04:00 11.2 59 5.98 3.5 13 15 1017.3 0 14.1 22.6 30.9 80.7 67.9 231.1
Legendre Island 11/05 04:00 22.4 43 8.54 9.2 28 32 1016.1 0 19.1 23.6 35.7 93.5 87.7 302.1
Leinster 11/05 04:00 10.5 73 7.08 5.9 11 15 1023.9 0 16.5 24.8 35.7 93.4 83.0 284.1
Leonora Airport 11/05 04:00 10.9 76 7.56 6.8 15 19 1025.9 0 17.5 25.5 37.6 98.3 89.1 305.4
Lombadina 11/05 04:00 21.5 52 9.8 11.2 11 15 1013 0 21.7 25.6 40.6 106.6 103.8 358.3
Mandora 11/05 04:00 20.2 35 6.12 4.3 11 19 1015.3 0 14.1 20.7 28.1 73.3 62.1 212.0
Mandurah 11/05 04:00 16.4 51 7.12 6.2 20 26 1021.9 0 16.3 23.2 33.3 87.0 77.4 265.1
Manjimup 11/05 04:00 11.6 61 6.34 4.3 19 24 1022 0 14.9 23.3 32.3 84.3 72.3 246.7
Marble Bar 11/05 04:00 15.6 32 4.26 -1 6 9 1017.3 0 10.3 19.2 23.4 60.7 44.8 150.6
Mardie 11/05 04:00 14.5 55 6.84 5.6 9 11 1016.8 0 15.8 23.1 32.8 85.8 75.5 258.2
Meekatharra 11/05 04:00 9.2 45 4.02 -2.1 4 6 1022.5 0 10.0 20.4 24.6 63.7 45.9 153.6
Millendon (Swan Valley) 11/05 04:00 15.8 45 6.06 3.9 7 15 1022.6 0 14.1 21.8 29.7 77.4 65.3 222.6
Morawa Airport 11/05 04:00 9 55 4.85 0.5 6 9 1023.4 0 11.8 21.7 27.7 72.0 56.0 189.1
Mount Keith 11/05 04:00 12.6 64 7.08 6 15 22 1024 0 16.4 24.2 34.8 91.0 80.8 276.7
Mount Magnet Airport 11/05 04:00 10.3 54 5.17 1.4 0 6 1023.2 0 12.4 21.8 28.5 74.0 59.0 199.7
Munglinup West 11/05 04:00 9.6 87 7.97 7.5 19 24 1026.8 0 18.4 26.6 39.9 104.6 96.3 330.3
Newdegate 11/05 04:00 9.1 85 7.54 6.7 11 15 1025.7 0 17.5 26.0 38.3 100.3 90.9 311.4
Newman Airport 11/05 04:00 11.3 42 4.28 -1.1 9 13 1019.7 0 10.5 20.2 24.8 64.3 47.6 159.8
Norseman Airport 11/05 04:00 8.6 89 7.65 6.9 11 11 1027.6 0 17.8 26.4 39.1 102.4 93.2 319.2
North Island 11/05 04:00 20.1 54 9.39 10.5 20 26 1020.4 0 20.9 25.6 40.1 105.1 101.1 348.7
Onslow Airport 11/05 04:00 17.1 75 10.92 12.6 9 13 1017.9 0 24.4 28.9 47.7 125.5 125.3 433.0
Paraburdoo 11/05 04:00 13.1 29 3.31 -4.5 9 9 1018.2 0 8.4 18.5 21.0 54.2 35.8 118.5
Pearce 11/05 04:00 16.2 40 5.52 2.6 22 33 1022.3 0 13.0 21.0 27.7 71.9 58.7 199.6
Perth 11/05 04:00 9.9 71 6.63 4.9 7 9 1022.6 0 15.5 24.2 34.2 89.2 77.7 265.3
Perth Airport 11/05 04:00 14.6 47 5.88 3.4 15 17 1022.5 0 13.8 21.8 29.5 76.8 64.2 218.4
Port Hedland 11/05 04:00 15.6 33 4.39 -0.6 15 17 1015.7 0 10.6 19.3 23.8 61.7 46.2 155.4
Portable Btsa (Dfes) 11/05 03:50 13.4 29 3.37 -4.1 6 7 1013.1 0 8.5 18.3 21.0 54.1 36.1 119.8
Portable Btsb (Dfes) 11/05 03:50 11.6 55 5.72 2.9 13 13 1013.1 0 13.5 22.0 29.7 77.3 64.1 218.0
Portable Btsd (Dfes) 11/05 03:50 9.5 84 7.65 7 15 17 1013.1 0 17.8 25.6 38.0 99.7 91.0 311.8
Portable Btsf (Dfes) 11/05 03:00 13 54 6.12 4.1 11 13 1013.1 0 14.3 22.3 30.6 79.9 67.8 231.1
Portable Btsh (Dfes) 11/05 03:50 5 100 6.8 5 0 0 1013.1 0 16.1 25.5 36.6 95.9 84.4 288.3
Portable Btsj (Dfes) 11/05 03:50 13.6 53 6.24 4.2 7 9 1013.1 0 14.6 22.3 30.8 80.5 68.7 234.5
Portable Btsk (Dfes) 11/05 03:50 11.8 40 4.21 -1.2 2 4 1013.1 0 10.3 19.8 24.2 62.8 46.2 155.1
Portable Btsl (Dfes) 11/05 03:50 11.1 97 9.77 10.7 7 11 1013.1 0.2 22.2 28.7 46.2 121.4 118.3 407.7
Portable Btsm (Dfes) 11/05 03:50 12.7 42 4.68 0.3 4 6 1013.1 0 11.3 20.2 25.6 66.4 51.0 172.2
Portable Btsn (Dfes) 11/05 03:50 13.3 57 6.59 5 11 15 1013.1 0 15.3 22.9 32.2 84.2 73.3 250.4
Portable Btso (Dfes) 11/05 03:50 3.8 90 5.65 2.3 0 0 1013.1 0 13.7 23.9 32.4 84.6 69.9 237.2
Red Rocks Point 11/05 04:00 12.4 95 10.38 11.6 11 13 1028.6 0 23.5 30.0 48.8 128.3 126.5 436.3
Rocky Gully South 11/05 04:00 10.8 63 6.23 4 13 17 1013.1 0 14.7 23.0 31.9 83.2 71.1 242.4
Roebourne Airport 11/05 04:00 16.4 29 4.05 -1.7 15 19 1016.9 0 9.9 18.7 22.5 58.2 42.1 141.2
Rottnest Island 11/05 04:00 18.2 49 7.62 7.3 37 50 1021.6 0 17.3 23.5 34.4 89.9 81.6 280.2
Salmon Gums Rs 11/05 04:00 7.4 100 7.96 7.4 4 4 1013.1 0 18.5 26.7 40.4 106.0 97.8 335.6
Shannon 11/05 04:00 13.1 61 6.96 5.8 19 24 1013.1 0 16.1 23.5 33.7 88.2 78.1 267.2
Shark Bay Airport 11/05 04:00 10.2 79 7.52 6.7 15 17 1019 0 17.4 25.4 37.4 98.0 88.8 304.5
Solomon Airport 11/05 04:00 11.8 31 3.26 -4.8 4 4 1017.3 0 8.3 18.6 21.2 54.5 35.8 118.3
Southern Cross Airport 11/05 04:00 9.4 84 7.6 6.8 11 13 1026.2 0 17.6 26.0 38.5 100.7 91.4 313.2
Swanbourne 11/05 04:00 13.7 59 6.99 5.8 19 24 1013.1 0 16.2 23.4 33.6 87.8 77.9 266.5
Telfer 11/05 04:00 15.7 40 5.35 2.2 20 28 1017.9 0 12.6 20.7 27.1 70.5 56.9 193.2
Thevenard Island 11/05 04:00 22.1 60 11.71 14 19 24 1017.6 0 25.7 28.5 47.9 126.1 127.7 442.0
Troughton Island 11/05 05:30 27.3 60 15.7 18.9 20 26 1012 0 33.8 33.1 60.4 159.5 170.6 592.3
Walpole North 11/05 04:00 14.3 56 6.88 5.7 11 24 1021.5 0 15.9 23.4 33.2 86.8 76.5 261.6
Wandering 11/05 04:00 3.3 85 5.16 1 0 0 1013.1 0 12.6 23.2 30.6 79.8 63.8 215.6
Warburton 11/05 05:30 14.8 47 5.95 3.6 17 26 1023.4 0 13.9 21.9 29.7 77.4 64.9 221.0
West Angelas 11/05 04:00 14.5 34 4.23 -1.2 15 22 1017.8 0 10.3 19.4 23.7 61.3 45.1 151.5
West Musgrave Airport 11/05 04:00 12.7 54 6.01 3.6 11 13 1013.1 0.2 14.1 22.2 30.3 79.1 66.7 227.3
Wiluna Airport 11/05 04:00 13.2 55 6.32 4.4 17 22 1023.1 0 14.8 22.9 31.7 82.5 70.7 241.2
Witchcliffe West 11/05 04:00 13.1 86 9.81 10.8 15 20 1020.7 0 22.2 28.4 45.5 119.6 116.5 401.6
Wyndham Airport 11/05 05:30 22.9 59 12.06 14.5 7 9 1013.4 0 26.4 28.7 48.6 128.0 130.5 452.0
Yampi Sound (Defence) 11/05 04:00 16 95 12.94 15.2 0 0 1016.8 0 28.8 32.8 57.2 150.8 156.1 540.3

Last Refresh: 11-May-2026 05:41:07

Bureau of Meteorology